createdAt,value
2018-05-17T00:01:50.272Z,18.90
2018-05-17T00:04:17.386Z,18.90
2018-05-17T00:06:44.600Z,19.00
2018-05-17T00:09:11.711Z,18.90
2018-05-17T00:11:39.005Z,18.90
2018-05-17T00:14:06.123Z,18.90
2018-05-17T00:16:33.251Z,18.90
2018-05-17T00:19:01.155Z,18.90
2018-05-17T00:21:28.307Z,18.90
2018-05-17T00:23:55.455Z,18.90
2018-05-17T00:26:22.569Z,18.90
2018-05-17T00:28:50.563Z,18.90
2018-05-17T00:31:17.728Z,18.90
2018-05-17T00:33:44.842Z,18.90
2018-05-17T00:36:12.726Z,18.90
2018-05-17T00:38:39.844Z,18.90
2018-05-17T00:41:08.782Z,18.90
2018-05-17T00:43:35.895Z,18.80
2018-05-17T00:46:03.784Z,18.90
2018-05-17T00:48:30.894Z,18.80
2018-05-17T00:50:58.187Z,18.90
2018-05-17T00:53:31.190Z,18.90
2018-05-17T00:55:58.303Z,18.90
2018-05-17T00:58:26.192Z,18.90
2018-05-17T01:00:53.461Z,18.80
2018-05-17T01:03:20.578Z,18.90
2018-05-17T01:05:48.460Z,18.90
2018-05-17T01:08:15.575Z,18.80
2018-05-17T01:10:42.767Z,18.90
2018-05-17T01:13:09.879Z,18.90
2018-05-17T01:15:37.760Z,18.90
2018-05-17T01:18:05.643Z,18.80
2018-05-17T01:20:32.803Z,18.80
2018-05-17T01:23:00.251Z,18.80
2018-05-17T01:25:27.364Z,18.80
2018-05-17T01:27:54.500Z,18.80
2018-05-17T01:30:21.611Z,18.80
2018-05-17T01:32:48.904Z,18.80
2018-05-17T01:35:17.536Z,18.80
2018-05-17T01:37:50.431Z,18.80
2018-05-17T01:40:17.570Z,18.80
2018-05-17T01:42:44.684Z,18.80
2018-05-17T01:45:11.898Z,18.80
2018-05-17T01:47:39.037Z,18.80
2018-05-17T01:50:07.225Z,18.80
2018-05-17T01:52:34.360Z,18.80
2018-05-17T01:55:01.475Z,18.80
2018-05-17T01:57:29.361Z,18.80
2018-05-17T01:59:56.528Z,18.70
2018-05-17T02:02:23.640Z,18.80
2018-05-17T02:04:51.600Z,18.80
2018-05-17T02:07:19.497Z,18.70
2018-05-17T02:09:46.667Z,18.70
2018-05-17T02:12:13.777Z,18.80
2018-05-17T02:14:41.665Z,18.70
2018-05-17T02:17:08.792Z,18.70
2018-05-17T02:19:36.696Z,18.70
2018-05-17T02:22:03.800Z,18.70
2018-05-17T02:24:31.679Z,18.70
2018-05-17T02:26:59.576Z,18.70
2018-05-17T02:29:26.831Z,18.70
2018-05-17T02:31:54.100Z,18.70
2018-05-17T02:34:21.221Z,18.70
2018-05-17T02:36:48.486Z,18.70
2018-05-17T02:39:15.643Z,18.70
2018-05-17T02:41:42.791Z,18.70
2018-05-17T02:44:09.910Z,18.70
2018-05-17T02:46:37.024Z,18.70
2018-05-17T02:49:04.148Z,18.70
2018-05-17T02:51:31.285Z,18.70
2018-05-17T02:53:58.400Z,18.70
2018-05-17T02:56:26.287Z,18.70
2018-05-17T02:58:53.517Z,18.60
2018-05-17T03:01:21.424Z,18.70
2018-05-17T03:03:48.540Z,18.60
2018-05-17T03:06:16.423Z,18.70
2018-05-17T03:08:43.703Z,18.60
2018-05-17T03:11:10.841Z,18.70
2018-05-17T03:13:37.952Z,18.70
2018-05-17T03:16:05.847Z,18.70
2018-05-17T03:18:32.954Z,18.60
2018-05-17T03:21:00.159Z,18.70
2018-05-17T03:23:27.327Z,18.60
2018-05-17T03:25:54.472Z,18.70
2018-05-17T03:28:21.591Z,18.60
2018-05-17T03:30:48.772Z,18.60
2018-05-17T03:33:15.895Z,18.60
2018-05-17T03:35:43.004Z,18.60
2018-05-17T03:38:10.221Z,18.60
2018-05-17T03:40:37.562Z,18.60
2018-05-17T03:43:04.676Z,18.60
2018-05-17T03:45:32.568Z,18.60
2018-05-17T03:47:59.680Z,18.60
2018-05-17T03:50:28.619Z,18.60
2018-05-17T03:52:55.719Z,18.60
2018-05-17T03:55:22.937Z,18.60
2018-05-17T03:57:50.063Z,18.60
2018-05-17T04:00:17.218Z,18.60
2018-05-17T04:02:50.603Z,18.60
2018-05-17T04:05:23.675Z,18.60
2018-05-17T04:07:51.595Z,18.60
2018-05-17T04:10:18.844Z,18.60
2018-05-17T04:12:46.169Z,18.60
2018-05-17T04:15:13.302Z,18.60
2018-05-17T04:17:40.428Z,18.60
2018-05-17T04:20:07.755Z,18.70
2018-05-17T04:22:34.998Z,18.60
2018-05-17T04:25:02.162Z,18.60
2018-05-17T04:27:29.378Z,18.60
2018-05-17T04:29:57.695Z,18.60
2018-05-17T04:32:24.937Z,18.60
2018-05-17T04:34:52.603Z,18.60
2018-05-17T04:37:19.848Z,18.70
2018-05-17T04:39:47.027Z,18.70
2018-05-17T04:42:14.248Z,18.60
2018-05-17T04:44:41.475Z,18.60
2018-05-17T04:47:08.812Z,18.60
2018-05-17T04:49:36.730Z,18.60
2018-05-17T04:52:03.945Z,18.60
2018-05-17T04:54:31.143Z,18.60
2018-05-17T04:56:58.288Z,18.60
2018-05-17T04:59:25.432Z,18.60
2018-05-17T05:01:53.424Z,18.60
2018-05-17T05:04:21.440Z,18.60
2018-05-17T05:06:49.000Z,18.60
2018-05-17T05:09:16.256Z,18.60
2018-05-17T05:11:43.557Z,18.60
2018-05-17T05:14:10.783Z,18.60
2018-05-17T05:16:38.052Z,18.60
2018-05-17T05:19:05.274Z,18.60
2018-05-17T05:21:33.641Z,18.50
2018-05-17T05:24:00.802Z,18.60
2018-05-17T05:26:27.953Z,18.60
2018-05-17T05:28:55.201Z,18.60
2018-05-17T05:31:22.442Z,18.60
2018-05-17T05:33:49.636Z,18.60
2018-05-17T05:36:16.789Z,18.60
2018-05-17T05:38:43.957Z,18.60
2018-05-17T05:41:11.096Z,18.60
2018-05-17T05:43:38.236Z,18.60
2018-05-17T05:46:05.475Z,18.60
2018-05-17T05:48:32.723Z,18.60
2018-05-17T05:50:59.881Z,18.60
2018-05-17T05:53:27.043Z,18.60
2018-05-17T05:55:54.280Z,18.60
2018-05-17T05:58:21.556Z,18.60
2018-05-17T06:00:48.807Z,18.60
2018-05-17T06:03:16.077Z,18.60
2018-05-17T06:05:44.111Z,18.60
2018-05-17T06:08:11.364Z,18.60
2018-05-17T06:10:39.103Z,18.60
2018-05-17T06:13:06.436Z,18.60
2018-05-17T06:15:33.614Z,18.60
2018-05-17T06:18:00.867Z,18.60
2018-05-17T06:20:28.049Z,18.60
2018-05-17T06:22:55.236Z,18.60
2018-05-17T06:25:23.152Z,18.60
2018-05-17T06:27:50.283Z,18.60
2018-05-17T06:30:17.575Z,18.60
2018-05-17T06:32:44.845Z,18.60
2018-05-17T06:35:12.773Z,18.60
2018-05-17T06:37:39.942Z,18.60
2018-05-17T06:40:07.127Z,18.60
2018-05-17T06:42:35.148Z,18.60
2018-05-17T06:45:02.372Z,18.60
2018-05-17T06:47:29.502Z,18.60
2018-05-17T06:49:57.595Z,18.60
2018-05-17T06:52:24.738Z,18.60
2018-05-17T06:54:51.876Z,18.60
2018-05-17T06:57:19.908Z,18.60
2018-05-17T06:59:47.091Z,18.60
2018-05-17T07:02:14.993Z,18.60
2018-05-17T07:04:42.152Z,18.60
2018-05-17T07:07:09.292Z,18.70
2018-05-17T07:09:37.592Z,18.60
2018-05-17T07:12:05.144Z,18.70
2018-05-17T07:14:32.406Z,18.60
2018-05-17T07:16:59.584Z,18.70
2018-05-17T07:19:28.648Z,18.60
2018-05-17T07:21:55.997Z,18.60
2018-05-17T07:24:23.143Z,18.60
2018-05-17T07:26:50.428Z,18.70
2018-05-17T07:29:17.555Z,18.70
2018-05-17T07:31:44.878Z,18.70
2018-05-17T07:34:12.029Z,18.70
2018-05-17T07:36:39.205Z,18.70
2018-05-17T07:39:06.419Z,18.70
2018-05-17T07:41:33.597Z,18.70
2018-05-17T07:44:00.748Z,18.70
2018-05-17T07:46:27.900Z,18.70
2018-05-17T07:48:55.037Z,18.70
2018-05-17T07:51:23.217Z,18.70
2018-05-17T07:53:50.589Z,18.70
2018-05-17T07:56:17.835Z,18.70
2018-05-17T07:58:45.111Z,18.70
2018-05-17T08:01:12.240Z,18.70
2018-05-17T08:03:39.416Z,18.70
2018-05-17T08:06:06.640Z,18.70
2018-05-17T08:08:33.871Z,18.70
2018-05-17T08:11:01.122Z,18.80
2018-05-17T08:13:28.273Z,18.80
2018-05-17T08:15:55.407Z,18.80
2018-05-17T08:18:22.533Z,18.80
2018-05-17T08:20:49.770Z,18.80
2018-05-17T08:23:16.884Z,18.80
2018-05-17T08:25:44.342Z,18.80
2018-05-17T08:28:11.480Z,18.80
2018-05-17T08:30:38.683Z,18.80
2018-05-17T08:33:05.826Z,18.80
2018-05-17T08:35:33.031Z,18.80
2018-05-17T08:38:00.634Z,18.80
2018-05-17T08:40:27.783Z,18.80
2018-05-17T08:42:55.100Z,18.80
2018-05-17T08:45:22.271Z,18.80
2018-05-17T08:47:49.612Z,18.80
2018-05-17T08:50:17.828Z,18.80
2018-05-17T08:52:45.086Z,18.80
2018-05-17T08:55:12.307Z,18.80
2018-05-17T08:57:39.582Z,18.80
2018-05-17T09:00:06.785Z,18.80
2018-05-17T09:02:33.896Z,18.80
2018-05-17T09:05:01.909Z,18.80
2018-05-17T09:07:29.155Z,18.80
2018-05-17T09:09:56.343Z,18.80
2018-05-17T09:12:23.583Z,18.80
2018-05-17T09:14:50.752Z,18.80
2018-05-17T09:17:18.094Z,18.80
2018-05-17T09:19:45.739Z,18.80
2018-05-17T09:22:12.898Z,18.80
2018-05-17T09:24:40.047Z,18.80
2018-05-17T09:27:07.485Z,18.80
2018-05-17T09:29:34.819Z,18.80
2018-05-17T09:32:02.834Z,18.80
2018-05-17T09:34:30.087Z,18.80
2018-05-17T09:36:57.266Z,18.80
2018-05-17T09:39:24.564Z,18.80
2018-05-17T09:41:51.771Z,18.80
2018-05-17T09:44:19.024Z,18.80
2018-05-17T09:46:46.424Z,18.80
2018-05-17T09:49:13.605Z,18.80
2018-05-17T09:51:41.349Z,18.80
2018-05-17T09:54:08.687Z,18.80
2018-05-17T09:56:35.926Z,18.80
2018-05-17T09:59:03.150Z,18.80
2018-05-17T10:01:30.656Z,18.80
2018-05-17T10:03:58.019Z,18.80
2018-05-17T10:06:25.491Z,18.80
2018-05-17T10:08:52.824Z,18.80
2018-05-17T10:11:20.105Z,18.80
2018-05-17T10:13:47.286Z,18.80
2018-05-17T10:16:14.493Z,18.90
2018-05-17T10:18:41.727Z,18.90
2018-05-17T10:21:08.900Z,18.90
2018-05-17T10:23:36.338Z,18.90
2018-05-17T10:26:03.499Z,18.90
2018-05-17T10:28:30.664Z,18.90
2018-05-17T10:30:58.211Z,18.90
2018-05-17T10:33:25.367Z,18.80
2018-05-17T10:35:52.573Z,18.90
2018-05-17T10:38:20.592Z,18.90
2018-05-17T10:40:47.965Z,18.80
2018-05-17T10:43:15.873Z,18.90
2018-05-17T10:45:43.139Z,18.80
2018-05-17T10:48:10.303Z,18.90
2018-05-17T10:50:38.520Z,18.90
2018-05-17T10:53:05.649Z,18.90
2018-05-17T10:55:32.873Z,18.90
2018-05-17T10:58:00.036Z,18.90
2018-05-17T11:00:28.227Z,18.90
2018-05-17T11:02:55.410Z,18.90
2018-05-17T11:05:23.547Z,18.90
2018-05-17T11:07:50.771Z,18.80
2018-05-17T11:10:18.048Z,18.90
2018-05-17T11:12:45.285Z,18.90
2018-05-17T11:15:12.601Z,18.90
2018-05-17T11:17:39.807Z,18.90
2018-05-17T11:20:06.933Z,18.90
2018-05-17T11:22:34.136Z,18.90
2018-05-17T11:25:01.260Z,18.90
2018-05-17T11:27:28.423Z,18.90
2018-05-17T11:29:55.697Z,18.90
2018-05-17T11:32:22.868Z,18.80
2018-05-17T11:34:50.011Z,18.90
2018-05-17T11:37:18.030Z,18.90
2018-05-17T11:39:45.216Z,18.80
2018-05-17T11:42:12.520Z,18.90
2018-05-17T11:44:39.796Z,18.80
2018-05-17T11:47:07.062Z,18.80
2018-05-17T11:49:34.293Z,18.90
2018-05-17T11:52:01.431Z,18.80
2018-05-17T11:54:28.547Z,18.80
2018-05-17T11:56:56.833Z,18.90
2018-05-17T11:59:24.098Z,18.80
2018-05-17T12:01:51.371Z,18.90
2018-05-17T12:04:18.624Z,18.90
2018-05-17T12:06:45.852Z,18.90
2018-05-17T12:09:13.202Z,18.80
2018-05-17T12:11:40.382Z,18.90
2018-05-17T12:14:07.653Z,18.80
2018-05-17T12:16:34.815Z,18.90
2018-05-17T12:19:02.063Z,18.90
2018-05-17T12:21:29.322Z,18.80
2018-05-17T12:23:56.518Z,18.80
2018-05-17T12:26:23.667Z,18.90
2018-05-17T12:28:51.429Z,18.80
2018-05-17T12:31:18.628Z,18.90
2018-05-17T12:33:45.760Z,18.80
2018-05-17T12:36:12.936Z,18.80
2018-05-17T12:38:40.181Z,18.80
2018-05-17T12:41:07.298Z,18.80
2018-05-17T12:43:34.563Z,18.80
2018-05-17T12:46:01.786Z,18.80
2018-05-17T12:48:29.052Z,18.80
2018-05-17T12:50:57.366Z,18.80
2018-05-17T12:53:24.490Z,18.80
2018-05-17T12:55:51.618Z,18.80
2018-05-17T12:58:18.871Z,18.80
2018-05-17T13:00:46.426Z,18.80
2018-05-17T13:03:13.709Z,18.80
2018-05-17T13:05:40.855Z,18.80
2018-05-17T13:08:07.980Z,18.80
2018-05-17T13:10:35.146Z,18.80
2018-05-17T13:13:02.560Z,18.80
2018-05-17T13:15:29.680Z,18.80
2018-05-17T13:17:56.887Z,18.90
2018-05-17T13:20:24.059Z,18.90
2018-05-17T13:22:51.253Z,18.80
2018-05-17T13:25:19.239Z,18.80
2018-05-17T13:27:46.414Z,18.80
2018-05-17T13:30:13.727Z,18.90
2018-05-17T13:32:41.329Z,18.80
2018-05-17T13:35:08.525Z,18.90
2018-05-17T13:37:35.791Z,18.80
2018-05-17T13:40:03.738Z,18.80
2018-05-17T13:42:30.870Z,18.80
2018-05-17T13:44:58.145Z,18.90
2018-05-17T13:47:25.554Z,18.90
2018-05-17T13:49:53.019Z,18.80
2018-05-17T13:52:20.279Z,18.80
2018-05-17T13:54:47.551Z,18.90
2018-05-17T13:57:14.808Z,18.90
2018-05-17T13:59:42.052Z,18.80
2018-05-17T14:02:09.297Z,18.90
2018-05-17T14:04:36.727Z,18.80
2018-05-17T14:07:03.858Z,18.90
2018-05-17T14:09:32.055Z,18.80
2018-05-17T14:11:59.442Z,18.80
2018-05-17T14:14:26.766Z,18.80
2018-05-17T14:16:54.224Z,18.80
2018-05-17T14:19:21.429Z,18.80
2018-05-17T14:21:48.658Z,18.80
2018-05-17T14:24:15.931Z,18.80
2018-05-17T14:26:43.130Z,18.80
2018-05-17T14:29:10.292Z,18.90
2018-05-17T14:31:38.551Z,18.80
2018-05-17T14:34:05.761Z,18.80
2018-05-17T14:36:33.164Z,18.80
2018-05-17T14:39:00.391Z,18.80
2018-05-17T14:41:28.435Z,18.80
2018-05-17T14:43:55.675Z,18.80
2018-05-17T14:46:24.298Z,18.90
2018-05-17T14:48:52.390Z,18.90
2018-05-17T14:51:19.676Z,18.80
2018-05-17T14:53:47.025Z,18.90
2018-05-17T14:56:14.195Z,18.90
2018-05-17T14:58:41.373Z,18.90
2018-05-17T15:01:09.385Z,18.90
2018-05-17T15:03:36.728Z,18.80
2018-05-17T15:06:04.007Z,18.90
2018-05-17T15:08:31.266Z,18.90
2018-05-17T15:10:59.344Z,18.90
2018-05-17T15:13:26.660Z,18.90
2018-05-17T15:15:54.164Z,18.80
2018-05-17T15:18:21.348Z,18.90
2018-05-17T15:20:49.505Z,18.90
2018-05-17T15:23:17.474Z,19.00
2018-05-17T15:25:45.483Z,18.90
2018-05-17T15:28:12.863Z,18.90
2018-05-17T15:30:41.775Z,19.00
2018-05-17T15:33:09.095Z,18.90
2018-05-17T15:35:36.265Z,19.00
2018-05-17T15:38:03.597Z,19.00
2018-05-17T15:40:32.168Z,19.00
2018-05-17T15:42:59.356Z,19.00
2018-05-17T15:45:26.614Z,19.00
2018-05-17T15:47:54.032Z,19.00
2018-05-17T15:50:21.190Z,19.10
2018-05-17T15:52:48.580Z,19.10
2018-05-17T15:55:15.820Z,19.10
2018-05-17T15:57:42.949Z,19.10
2018-05-17T16:00:11.420Z,19.10
2018-05-17T16:02:38.702Z,19.10
2018-05-17T16:05:05.951Z,19.20
2018-05-17T16:07:33.215Z,19.20
2018-05-17T16:10:00.460Z,19.20
2018-05-17T16:12:27.737Z,19.20
2018-05-17T16:14:55.037Z,19.20
2018-05-17T16:17:22.957Z,19.20
2018-05-17T16:19:50.088Z,19.20
2018-05-17T16:22:17.309Z,19.30
2018-05-17T16:24:44.602Z,19.40
2018-05-17T16:27:11.864Z,19.30
2018-05-17T16:29:39.197Z,19.30
2018-05-17T16:32:06.325Z,19.30
2018-05-17T16:34:33.491Z,19.30
2018-05-17T16:37:00.648Z,19.30
2018-05-17T16:39:27.898Z,19.30
2018-05-17T16:41:55.043Z,19.30
2018-05-17T16:44:22.605Z,19.30
2018-05-17T16:46:49.726Z,19.30
2018-05-17T16:49:17.027Z,19.30
2018-05-17T16:51:44.152Z,19.40
2018-05-17T16:54:11.386Z,19.40
2018-05-17T16:56:38.555Z,19.40
2018-05-17T16:59:05.682Z,19.40
2018-05-17T17:01:32.985Z,19.40
2018-05-17T17:04:00.244Z,19.40
2018-05-17T17:06:27.363Z,19.40
2018-05-17T17:08:54.726Z,19.40
2018-05-17T17:11:23.818Z,19.40
2018-05-17T17:13:51.083Z,19.40
2018-05-17T17:16:18.230Z,19.50
2018-05-17T17:18:45.402Z,19.50
2018-05-17T17:21:12.623Z,19.50
2018-05-17T17:23:39.888Z,19.40
2018-05-17T17:26:07.040Z,19.40
2018-05-17T17:28:34.295Z,19.50
2018-05-17T17:31:01.462Z,19.50
2018-05-17T17:33:28.750Z,19.50
2018-05-17T17:35:55.909Z,19.50
2018-05-17T17:38:23.031Z,19.50
2018-05-17T17:40:50.995Z,19.50
2018-05-17T17:43:18.919Z,19.50
2018-05-17T17:45:46.058Z,19.50
2018-05-17T17:48:13.401Z,19.50
2018-05-17T17:50:40.555Z,19.50
2018-05-17T17:53:07.721Z,19.60
2018-05-17T17:55:34.852Z,19.60
2018-05-17T17:58:01.971Z,19.60
2018-05-17T18:00:29.288Z,19.50
2018-05-17T18:02:56.424Z,19.60
2018-05-17T18:05:23.705Z,19.60
2018-05-17T18:07:51.753Z,19.60
2018-05-17T18:10:18.996Z,19.50
2018-05-17T18:12:46.135Z,19.60
2018-05-17T18:15:13.418Z,19.60
2018-05-17T18:17:41.359Z,19.60
2018-05-17T18:20:08.538Z,19.50
2018-05-17T18:22:35.862Z,19.60
2018-05-17T18:25:03.029Z,19.60
2018-05-17T18:27:30.242Z,19.60
2018-05-17T18:29:59.288Z,19.50
2018-05-17T18:32:26.659Z,19.50
2018-05-17T18:34:53.857Z,19.50
2018-05-17T18:37:20.979Z,19.60
2018-05-17T18:39:48.972Z,19.60
2018-05-17T18:42:16.094Z,19.50
2018-05-17T18:44:44.085Z,19.60
2018-05-17T18:47:11.256Z,19.50
2018-05-17T18:49:38.439Z,19.60
2018-05-17T18:52:05.997Z,19.60
2018-05-17T18:54:33.124Z,19.50
2018-05-17T18:57:00.302Z,19.50
2018-05-17T18:59:27.616Z,19.50
2018-05-17T19:01:54.845Z,19.50
2018-05-17T19:04:22.158Z,19.50
2018-05-17T19:06:49.340Z,19.50
2018-05-17T19:09:16.611Z,19.50
2018-05-17T19:11:43.818Z,19.50
2018-05-17T19:14:11.190Z,19.50
2018-05-17T19:16:38.465Z,19.50
2018-05-17T19:19:05.625Z,19.50
2018-05-17T19:21:32.814Z,19.50
2018-05-17T19:23:59.964Z,19.50
2018-05-17T19:26:27.115Z,19.50
2018-05-17T19:28:54.323Z,19.50
2018-05-17T19:31:22.536Z,19.50
2018-05-17T19:33:50.469Z,19.50
2018-05-17T19:36:17.851Z,19.50
2018-05-17T19:38:45.104Z,19.50
2018-05-17T19:41:12.256Z,19.50
2018-05-17T19:43:39.512Z,19.50
2018-05-17T19:46:06.772Z,19.50
2018-05-17T19:48:33.888Z,19.50
2018-05-17T19:51:02.068Z,19.50
2018-05-17T19:53:29.217Z,19.50
2018-05-17T19:55:56.377Z,19.50
2018-05-17T19:58:23.625Z,19.50
2018-05-17T20:00:50.769Z,19.50
2018-05-17T20:03:18.006Z,19.50
2018-05-17T20:05:45.284Z,19.50
2018-05-17T20:08:12.758Z,19.50
2018-05-17T20:10:40.072Z,19.50
2018-05-17T20:13:07.183Z,19.50
2018-05-17T20:15:34.326Z,19.50
2018-05-17T20:18:01.486Z,19.40
2018-05-17T20:20:30.621Z,19.50
2018-05-17T20:22:57.761Z,19.40
2018-05-17T20:25:25.019Z,19.50
2018-05-17T20:27:52.908Z,19.50
2018-05-17T20:30:20.058Z,19.50
2018-05-17T20:32:47.181Z,19.50
2018-05-17T20:35:14.296Z,19.50
2018-05-17T20:37:41.408Z,19.50
2018-05-17T20:40:08.769Z,19.50
2018-05-17T20:42:35.901Z,19.50
2018-05-17T20:45:03.034Z,19.40
2018-05-17T20:47:30.168Z,19.50
2018-05-17T20:49:58.067Z,19.40
2018-05-17T20:52:25.183Z,19.40
2018-05-17T20:54:53.170Z,19.40
2018-05-17T20:57:20.288Z,19.40
2018-05-17T20:59:49.620Z,19.40
2018-05-17T21:02:16.742Z,19.40
2018-05-17T21:04:44.739Z,19.40
2018-05-17T21:07:11.867Z,19.40
2018-05-17T21:09:39.772Z,19.40
2018-05-17T21:12:07.028Z,19.40
2018-05-17T21:14:34.159Z,19.40
2018-05-17T21:17:01.276Z,19.40
2018-05-17T21:19:29.160Z,19.40
2018-05-17T21:21:57.047Z,19.40
2018-05-17T21:24:24.168Z,19.40
2018-05-17T21:26:52.048Z,19.40
2018-05-17T21:29:19.239Z,19.40
2018-05-17T21:31:46.772Z,19.40
2018-05-17T21:34:13.884Z,19.40
2018-05-17T21:36:40.996Z,19.40
2018-05-17T21:39:08.116Z,19.40
2018-05-17T21:41:35.280Z,19.30
2018-05-17T21:44:02.535Z,19.40
2018-05-17T21:46:29.644Z,19.40
2018-05-17T21:48:57.535Z,19.40
2018-05-17T21:51:24.716Z,19.30
2018-05-17T21:53:51.839Z,19.40
2018-05-17T21:56:18.946Z,19.40
2018-05-17T21:58:46.068Z,19.30
2018-05-17T22:01:13.190Z,19.30
2018-05-17T22:03:40.331Z,19.30
2018-05-17T22:06:07.459Z,19.30
2018-05-17T22:08:35.355Z,19.30
2018-05-17T22:11:02.515Z,19.30
2018-05-17T22:13:29.628Z,19.30
2018-05-17T22:15:57.534Z,19.30
2018-05-17T22:18:24.696Z,19.30
2018-05-17T22:20:51.833Z,19.30
2018-05-17T22:23:18.948Z,19.30
2018-05-17T22:25:46.832Z,19.30
2018-05-17T22:28:13.961Z,19.30
2018-05-17T22:30:41.953Z,19.30
2018-05-17T22:33:09.065Z,19.30
2018-05-17T22:35:36.183Z,19.30
2018-05-17T22:38:03.300Z,19.30
2018-05-17T22:40:30.470Z,19.30
2018-05-17T22:42:57.600Z,19.30
2018-05-17T22:45:24.715Z,19.30
2018-05-17T22:47:52.016Z,19.30
2018-05-17T22:50:19.166Z,19.30
2018-05-17T22:52:46.281Z,19.30
2018-05-17T22:55:14.159Z,19.30
2018-05-17T22:57:47.311Z,19.20
2018-05-17T23:00:15.464Z,19.30
2018-05-17T23:02:42.589Z,19.30
2018-05-17T23:05:09.703Z,19.30
2018-05-17T23:07:37.591Z,19.20
2018-05-17T23:10:04.856Z,19.20
2018-05-17T23:12:31.967Z,19.20
2018-05-17T23:14:59.836Z,19.20
2018-05-17T23:17:27.735Z,19.20
2018-05-17T23:19:55.004Z,19.20
2018-05-17T23:22:28.110Z,19.20
2018-05-17T23:24:55.242Z,19.20
2018-05-17T23:27:22.351Z,19.20
2018-05-17T23:29:50.244Z,19.20
2018-05-17T23:32:17.360Z,19.20
2018-05-17T23:34:44.470Z,19.20
2018-05-17T23:37:17.444Z,19.20
2018-05-17T23:39:46.012Z,19.20
2018-05-17T23:42:13.169Z,19.20
2018-05-17T23:44:40.280Z,19.20
2018-05-17T23:47:08.159Z,19.20
2018-05-17T23:49:36.059Z,19.20
2018-05-17T23:52:03.428Z,19.20
2018-05-17T23:54:30.540Z,19.20
2018-05-17T23:56:57.651Z,19.20
2018-05-17T23:59:24.765Z,19.20
